sensor_id;sensor_type;location;lat;lon;timestamp;P1;durP1;ratioP1;P2;durP2;ratioP2
75887;SDS011;64562;55.662;37.300;2022-10-22T11:50:26;9.55;;;4.05;;
75887;SDS011;64562;55.662;37.300;2022-10-22T11:53:00;9.75;;;3.60;;
75887;SDS011;64562;55.662;37.300;2022-10-22T11:58:28;7.00;;;3.35;;
75887;SDS011;64562;55.662;37.300;2022-10-22T12:00:55;7.65;;;3.25;;
75887;SDS011;64562;55.662;37.300;2022-10-22T12:03:23;7.07;;;3.20;;
75887;SDS011;64562;55.662;37.300;2022-10-22T12:06:01;6.72;;;3.17;;
75887;SDS011;64562;55.662;37.300;2022-10-22T12:08:28;11.20;;;4.03;;
75887;SDS011;64562;55.662;37.300;2022-10-22T12:11:03;11.90;;;3.90;;
75887;SDS011;64562;55.662;37.300;2022-10-22T12:13:32;14.30;;;4.70;;
75887;SDS011;64562;55.662;37.300;2022-10-22T12:16:00;16.65;;;5.35;;
75887;SDS011;64562;55.662;37.300;2022-10-22T12:18:30;9.55;;;3.80;;
75887;SDS011;64562;55.662;37.300;2022-10-22T12:20:58;8.57;;;3.35;;
75887;SDS011;64562;55.662;37.300;2022-10-22T12:23:27;7.18;;;2.72;;
75887;SDS011;64562;55.662;37.300;2022-10-22T12:25:54;8.80;;;3.20;;
75887;SDS011;64562;55.662;37.300;2022-10-22T12:28:21;7.43;;;3.05;;
75887;SDS011;64562;55.662;37.300;2022-10-22T12:30:49;7.18;;;2.58;;
75887;SDS011;64562;55.662;37.300;2022-10-22T12:33:17;13.20;;;3.13;;
75887;SDS011;64562;55.662;37.300;2022-10-22T12:35:44;4.70;;;2.40;;
75887;SDS011;64562;55.662;37.300;2022-10-22T12:38:12;5.95;;;2.60;;
75887;SDS011;64562;55.662;37.300;2022-10-22T12:40:40;7.20;;;2.67;;
75887;SDS011;64562;55.662;37.300;2022-10-22T12:43:09;6.28;;;2.45;;
75887;SDS011;64562;55.662;37.300;2022-10-22T12:45:37;11.48;;;4.40;;
75887;SDS011;64562;55.662;37.300;2022-10-22T12:48:07;13.15;;;5.47;;
75887;SDS011;64562;55.662;37.300;2022-10-22T12:50:39;15.77;;;6.07;;
75887;SDS011;64562;55.662;37.300;2022-10-22T12:53:10;10.15;;;4.60;;
75887;SDS011;64562;55.662;37.300;2022-10-22T12:55:39;9.50;;;3.88;;
75887;SDS011;64562;55.662;37.300;2022-10-22T12:58:06;6.57;;;3.40;;
75887;SDS011;64562;55.662;37.300;2022-10-22T13:00:33;5.80;;;2.47;;
75887;SDS011;64562;55.662;37.300;2022-10-22T13:03:04;5.72;;;2.53;;
75887;SDS011;64562;55.662;37.300;2022-10-22T13:05:32;6.53;;;2.70;;
75887;SDS011;64562;55.662;37.300;2022-10-22T13:08:04;11.85;;;2.92;;
75887;SDS011;64562;55.662;37.300;2022-10-22T13:10:31;13.13;;;2.55;;
75887;SDS011;64562;55.662;37.300;2022-10-22T13:12:58;6.03;;;2.50;;
75887;SDS011;64562;55.662;37.300;2022-10-22T13:15:34;6.15;;;2.25;;
75887;SDS011;64562;55.662;37.300;2022-10-22T13:18:02;6.47;;;2.58;;
75887;SDS011;64562;55.662;37.300;2022-10-22T13:20:28;5.45;;;2.50;;
75887;SDS011;64562;55.662;37.300;2022-10-22T13:22:58;6.07;;;2.50;;
75887;SDS011;64562;55.662;37.300;2022-10-22T13:25:27;5.30;;;2.72;;
75887;SDS011;64562;55.662;37.300;2022-10-22T13:27:55;4.22;;;2.65;;
75887;SDS011;64562;55.662;37.300;2022-10-22T13:30:23;3.60;;;2.30;;
75887;SDS011;64562;55.662;37.300;2022-10-22T13:32:51;4.63;;;2.70;;
75887;SDS011;64562;55.662;37.300;2022-10-22T13:35:19;5.45;;;2.28;;
75887;SDS011;64562;55.662;37.300;2022-10-22T13:37:47;4.75;;;2.33;;
75887;SDS011;64562;55.662;37.300;2022-10-22T13:40:15;4.30;;;2.33;;
75887;SDS011;64562;55.662;37.300;2022-10-22T13:42:42;4.32;;;2.30;;
75887;SDS011;64562;55.662;37.300;2022-10-22T13:45:08;4.28;;;2.17;;
75887;SDS011;64562;55.662;37.300;2022-10-22T13:47:35;4.40;;;2.30;;
75887;SDS011;64562;55.662;37.300;2022-10-22T13:50:02;4.68;;;2.05;;
75887;SDS011;64562;55.662;37.300;2022-10-22T13:52:33;3.65;;;2.08;;
75887;SDS011;64562;55.662;37.300;2022-10-22T13:55:00;5.35;;;2.00;;
75887;SDS011;64562;55.662;37.300;2022-10-22T13:57:28;5.78;;;2.30;;
75887;SDS011;64562;55.662;37.300;2022-10-22T13:59:54;5.25;;;2.05;;
75887;SDS011;64562;55.662;37.300;2022-10-22T14:02:21;4.05;;;1.90;;
75887;SDS011;64562;55.662;37.300;2022-10-22T14:04:49;4.55;;;2.47;;
75887;SDS011;64562;55.662;37.300;2022-10-22T14:07:16;4.55;;;2.03;;
75887;SDS011;64562;55.662;37.300;2022-10-22T14:09:43;5.72;;;2.33;;
75887;SDS011;64562;55.662;37.300;2022-10-22T14:12:10;6.47;;;1.90;;
75887;SDS011;64562;55.662;37.300;2022-10-22T14:14:38;6.28;;;1.90;;
75887;SDS011;64562;55.662;37.300;2022-10-22T14:17:07;6.05;;;2.28;;
75887;SDS011;64562;55.662;37.300;2022-10-22T14:19:34;5.53;;;2.30;;
75887;SDS011;64562;55.662;37.300;2022-10-22T14:22:01;4.72;;;2.22;;
75887;SDS011;64562;55.662;37.300;2022-10-22T14:24:27;4.00;;;2.08;;
75887;SDS011;64562;55.662;37.300;2022-10-22T14:26:54;4.07;;;2.10;;
75887;SDS011;64562;55.662;37.300;2022-10-22T14:29:20;11.32;;;2.08;;
75887;SDS011;64562;55.662;37.300;2022-10-22T14:31:48;3.92;;;2.38;;
75887;SDS011;64562;55.662;37.300;2022-10-22T14:34:15;4.80;;;1.92;;
75887;SDS011;64562;55.662;37.300;2022-10-22T14:36:42;4.45;;;2.10;;
75887;SDS011;64562;55.662;37.300;2022-10-22T14:39:08;4.85;;;2.20;;
75887;SDS011;64562;55.662;37.300;2022-10-22T14:41:35;4.25;;;1.83;;
75887;SDS011;64562;55.662;37.300;2022-10-22T14:44:02;4.95;;;1.80;;
75887;SDS011;64562;55.662;37.300;2022-10-22T14:46:29;3.38;;;2.22;;
75887;SDS011;64562;55.662;37.300;2022-10-22T14:48:57;4.38;;;2.03;;
75887;SDS011;64562;55.662;37.300;2022-10-22T14:51:24;3.97;;;2.17;;
75887;SDS011;64562;55.662;37.300;2022-10-22T14:53:50;5.32;;;2.28;;
75887;SDS011;64562;55.662;37.300;2022-10-22T14:56:17;4.97;;;2.33;;
75887;SDS011;64562;55.662;37.300;2022-10-22T14:58:45;2.95;;;2.08;;
75887;SDS011;64562;55.662;37.300;2022-10-22T15:01:12;4.07;;;1.90;;
75887;SDS011;64562;55.662;37.300;2022-10-22T15:03:38;4.45;;;2.15;;
75887;SDS011;64562;55.662;37.300;2022-10-22T15:06:06;3.35;;;1.92;;
75887;SDS011;64562;55.662;37.300;2022-10-22T15:08:33;4.60;;;2.00;;
75887;SDS011;64562;55.662;37.300;2022-10-22T15:11:00;4.57;;;2.30;;
75887;SDS011;64562;55.662;37.300;2022-10-22T15:13:27;5.25;;;2.05;;
75887;SDS011;64562;55.662;37.300;2022-10-22T15:15:54;4.43;;;2.20;;
75887;SDS011;64562;55.662;37.300;2022-10-22T15:18:21;2.92;;;1.70;;
75887;SDS011;64562;55.662;37.300;2022-10-22T15:20:55;3.35;;;2.00;;
75887;SDS011;64562;55.662;37.300;2022-10-22T15:23:23;3.40;;;2.10;;
75887;SDS011;64562;55.662;37.300;2022-10-22T15:25:51;4.50;;;1.90;;
75887;SDS011;64562;55.662;37.300;2022-10-22T15:28:18;3.00;;;2.13;;
75887;SDS011;64562;55.662;37.300;2022-10-22T15:30:44;3.67;;;2.35;;
75887;SDS011;64562;55.662;37.300;2022-10-22T15:33:16;4.25;;;1.92;;
75887;SDS011;64562;55.662;37.300;2022-10-22T15:35:43;6.80;;;2.17;;
75887;SDS011;64562;55.662;37.300;2022-10-22T15:38:10;5.38;;;2.03;;
75887;SDS011;64562;55.662;37.300;2022-10-22T15:40:38;2.80;;;2.00;;
75887;SDS011;64562;55.662;37.300;2022-10-22T15:43:04;4.03;;;2.45;;
75887;SDS011;64562;55.662;37.300;2022-10-22T15:45:31;3.08;;;2.28;;
75887;SDS011;64562;55.662;37.300;2022-10-22T15:47:57;4.03;;;2.30;;
